Prof. Eribelto Manoel Reino State Airport

SBSR · São Paulo, 巴西

罗盘
风向 的 Prof. Eribelto Manoel Reino State Airport 7/25
风: 0 kt, 0 beaufort


改变
0 ft 1.000 2.000 3.000 4.000 5.000
Cloud Cloud
FEW 3.500
METAR SBSR 270100Z 00000KT 9999 FEW035 27/21 Q1015

METAR Prof. Eribelto Manoel Reino State Airport - SBSR/SJP

Prof. Eribelto Manoel Reino State Airport是,巴西中的中型机场。 该机场位于纬度-20,81700和经度-49,40675。 该机场有一条跑道: 7/25. 本场的ICAO机场代码为SBSR。 该机场的IATA代码为SJP。 机场在Brasilia FIR中。

该航空气象观测是针对Prof. Eribelto Manoel Reino State Airport在2024年2月26日 22:00, 当地时间进行的。

机场观察

可变方向的风很小或没有风。

可见度为10 km 或者更多。

有几云在3.500 ft的高度。 没有观察到天花板。

温度和风寒是27 °C。 热指数为29。 露点为21 °C,相对湿度为70%。 海平面上的气压为1015 hPa (QNH)。

白天

今天,太阳从06:13升起,在18:46降落。 这适用于Prof. Eribelto Manoel Reino State Airport,世界夏令时可能有所不同。 当地时间与世界标准时间之间的时差为-3 小时。 当前,没有夏令时有效。

公司介绍

我们没有关于这个机场的公司信息。

体会

到Vliegles.nl去找飞行课程,跳伞和其他飞行体验。 浏览页面,了解Prof. Eribelto Manoel Reino State Airport附近所有可用的活动。 你也可以使用搜索功能来寻找你所在地附近的特定飞行课程、跳伞或其他飞行体验。

跑道

Id 标题 侧风 逆风 侧风 %
7/25 052°-232°

逆风成分最大的方向会被突出显示,并用于横风计算。 这并不一定意味着这个方向在使用。

乌云

3.500 ft FEW 几云

温度 & 天气

温度 27 °C
露点 21 °C
相对湿度 70%
热度指数 29 °C
Kp-index 2 (0-9)

白天

日出
06:13 (7:52)
中午
12:30
日落
18:46

小工具

你想在你的网站上有一个关于Prof. Eribelto Manoel Reino State Airport的当前航空天气(METAR)的小部件吗?

显示HTML代码
?>